Terminal Aerodrome Forecast
Issued by NWS Memphis, TN

Home | Current Version | Previous Version | Text Only | Print | Product List | Glossary On
Versions: 1 2 3 4 5 6 7 8 9 10 11 12
443
FTUS44 KMEG 161743
TAFMKL
TAF
KMKL 161743Z 1618/1718 21009G15KT P6SM SCT250
     FM170000 18004KT P6SM SCT150 BKN250
     FM170500 17004KT P6SM VCSH BKN100
     FM170900 15004KT 6SM -SHRA BR SCT035 BKN050
     FM171200 13005KT 4SM SHRA BR OVC020
     FM171600 15006KT P6SM VCSH OVC025=

USA.gov is the U.S. government's official web portal to all federal, state and local government web resources and services.